createdAt,value
2022-12-25T00:09:51.407Z,9.30
2022-12-25T00:19:58.795Z,13.60
2022-12-25T00:30:07.128Z,13.30
2022-12-25T00:40:15.274Z,15.00
2022-12-25T00:50:22.372Z,28.20
2022-12-25T01:00:29.503Z,18.40
2022-12-25T01:10:37.026Z,14.50
2022-12-25T01:20:44.339Z,12.90
2022-12-25T01:30:48.981Z,13.40
2022-12-25T01:40:56.205Z,12.30
2022-12-25T01:51:06.979Z,14.60
2022-12-25T02:01:14.502Z,12.40
2022-12-25T02:11:35.915Z,11.20
2022-12-25T02:21:47.841Z,13.70
2022-12-25T02:31:59.658Z,10.90
2022-12-25T02:42:12.947Z,11.60
2022-12-25T02:52:41.584Z,10.00
2022-12-25T03:03:08.567Z,10.10
2022-12-25T03:13:20.685Z,8.90
2022-12-25T03:23:50.629Z,11.20
2022-12-25T03:34:33.225Z,16.30
2022-12-25T03:45:04.150Z,12.20
2022-12-25T03:55:27.062Z,10.70
2022-12-25T04:05:51.905Z,10.00
2022-12-25T04:16:17.709Z,7.70
2022-12-25T04:26:42.382Z,10.00
2022-12-25T04:36:49.767Z,8.90
2022-12-25T04:46:57.191Z,8.10
2022-12-25T04:57:04.362Z,8.40
2022-12-25T05:07:11.542Z,8.10
2022-12-25T05:17:18.657Z,10.10
2022-12-25T05:27:25.678Z,10.40
2022-12-25T05:37:32.694Z,8.60
2022-12-25T05:47:39.876Z,8.70
2022-12-25T05:57:46.858Z,9.80
2022-12-25T06:07:53.891Z,8.90
2022-12-25T06:18:01.775Z,9.20
2022-12-25T06:28:08.990Z,9.90
2022-12-25T06:38:16.086Z,8.70
2022-12-25T06:48:23.816Z,8.50
2022-12-25T06:58:31.685Z,9.40
2022-12-25T07:08:40.037Z,9.50
2022-12-25T07:18:47.678Z,8.80
2022-12-25T07:28:56.142Z,9.30
2022-12-25T07:39:03.118Z,12.00
2022-12-25T07:49:11.166Z,11.40
2022-12-25T07:59:18.248Z,15.00
2022-12-25T08:09:25.340Z,16.90
2022-12-25T08:19:40.691Z,23.90
2022-12-25T08:29:47.989Z,21.90
2022-12-25T08:39:55.194Z,22.80
2022-12-25T08:50:02.739Z,23.40
2022-12-25T09:00:11.837Z,25.20
2022-12-25T09:10:19.993Z,26.00
2022-12-25T09:20:27.309Z,27.70
2022-12-25T09:30:34.638Z,25.50
2022-12-25T09:40:42.297Z,19.20
2022-12-25T09:50:47.284Z,16.70
2022-12-25T10:00:58.513Z,18.30
2022-12-25T10:11:04.398Z,14.50
2022-12-25T10:21:14.630Z,11.80
2022-12-25T10:31:26.983Z,10.00
2022-12-25T10:41:36.197Z,14.00
2022-12-25T10:51:43.661Z,16.60
2022-12-25T11:01:55.026Z,19.80
2022-12-25T11:12:03.459Z,18.00
2022-12-25T11:22:18.995Z,13.40
2022-12-25T11:32:29.921Z,11.10
2022-12-25T11:42:38.416Z,12.20
2022-12-25T11:52:49.048Z,12.50
2022-12-25T12:03:00.968Z,12.20
2022-12-25T12:13:13.639Z,10.50
2022-12-25T12:23:20.918Z,13.00
2022-12-25T12:33:29.704Z,10.40
2022-12-25T12:43:35.373Z,10.80
2022-12-25T12:53:40.936Z,10.70
2022-12-25T13:04:18.489Z,8.40
2022-12-25T13:14:27.008Z,8.20
2022-12-25T13:24:37.192Z,10.80
2022-12-25T13:34:45.419Z,11.70
2022-12-25T13:44:56.338Z,13.80
2022-12-25T13:55:03.475Z,15.70
2022-12-25T14:05:26.986Z,15.40
2022-12-25T14:15:34.408Z,16.80
2022-12-25T14:25:45.988Z,22.60
2022-12-25T14:35:54.369Z,29.80
2022-12-25T14:46:03.156Z,38.60
2022-12-25T14:56:11.664Z,37.40
2022-12-25T15:06:21.329Z,39.00
2022-12-25T15:16:32.270Z,45.90
2022-12-25T15:26:39.448Z,49.70
2022-12-25T15:36:46.840Z,66.50
2022-12-25T15:46:54.527Z,62.60
2022-12-25T15:57:05.391Z,52.30
2022-12-25T16:07:12.095Z,44.90
2022-12-25T16:17:19.471Z,35.70
2022-12-25T16:27:26.949Z,40.90
2022-12-25T16:37:34.302Z,42.70
2022-12-25T16:47:41.528Z,36.30
2022-12-25T16:57:46.942Z,33.90
2022-12-25T17:07:54.282Z,32.90
2022-12-25T17:18:00.524Z,40.20
2022-12-25T17:28:07.003Z,36.20
2022-12-25T17:38:14.579Z,39.60
2022-12-25T17:48:22.181Z,38.50
2022-12-25T17:58:30.079Z,32.50
2022-12-25T18:08:39.786Z,31.80
2022-12-25T18:18:51.743Z,33.90
2022-12-25T18:29:00.071Z,30.80
2022-12-25T18:39:05.105Z,28.70
2022-12-25T18:49:12.338Z,33.70
2022-12-25T18:59:20.109Z,50.30
2022-12-25T19:09:26.904Z,38.30
2022-12-25T19:19:34.181Z,33.40
2022-12-25T19:29:40.778Z,37.10
2022-12-25T19:39:48.415Z,26.60
2022-12-25T19:50:00.882Z,28.20
2022-12-25T20:00:11.503Z,28.10
2022-12-25T20:10:19.473Z,28.30
2022-12-25T20:20:26.499Z,25.40
2022-12-25T20:30:33.923Z,26.50
2022-12-25T20:41:24.600Z,22.50
2022-12-25T20:51:15.957Z,20.70
2022-12-25T21:01:23.725Z,24.00
2022-12-25T21:11:30.830Z,21.80
2022-12-25T21:21:42.818Z,19.00
2022-12-25T21:32:08.016Z,19.00
2022-12-25T21:42:15.171Z,18.00
2022-12-25T21:52:22.411Z,18.10
2022-12-25T22:02:29.779Z,23.20
2022-12-25T22:12:54.896Z,24.30
2022-12-25T22:23:02.393Z,19.40
2022-12-25T22:33:09.987Z,21.80
2022-12-25T22:43:17.771Z,23.70
2022-12-25T22:53:25.148Z,20.30
2022-12-25T23:03:32.550Z,21.40
2022-12-25T23:24:21.306Z,22.20
2022-12-25T23:34:28.419Z,23.60
2022-12-25T23:44:36.162Z,22.10
2022-12-25T23:54:43.188Z,26.90
